Time;durP1;ratioP1;P1;durP2;ratioP2;P2;SDS_P1;SDS_P2;PMS_P1;PMS_P2;Temp;Humidity;BMP_temperature;BMP_pressure;BME280_temperature;BME280_humidity;BME280_pressure;Samples;Min_cycle;Max_cycle;Signal;HPM_P1;HPM_P2
2022/10/26 00:02:08;;;;;;;0.10;0.10;;;12.10;99.90;;;;;;5147203;27;20386;-72
2022/10/26 00:04:34;;;;;;;0.45;0.45;;;12.00;99.90;;;;;;5133606;27;20509;-73
2022/10/26 00:07:00;;;;;;;1.08;0.68;;;11.90;99.90;;;;;;5114704;27;20047;-73
2022/10/26 00:09:25;;;;;;;1.52;0.65;;;11.90;99.90;;;;;;5146154;27;20479;-73
2022/10/26 00:11:52;;;;;;;0.10;0.10;;;11.80;99.90;;;;;;5133427;27;20066;-72
2022/10/26 00:14:17;;;;;;;0.10;0.10;;;11.90;99.90;;;;;;5132309;27;20042;-73
2022/10/26 00:16:43;;;;;;;5.25;0.90;;;11.80;99.90;;;;;;5143813;27;20387;-72
2022/10/26 00:19:09;;;;;;;1.15;0.68;;;11.90;99.90;;;;;;5139952;27;20042;-73
2022/10/26 00:21:34;;;;;;;0.20;0.20;;;11.80;99.90;;;;;;5138874;27;20035;-73
2022/10/26 00:24:00;;;;;;;0.75;0.75;;;11.80;99.90;;;;;;5133131;27;20043;-73
2022/10/26 00:26:26;;;;;;;0.10;0.10;;;11.80;99.90;;;;;;5141116;27;20038;-72
2022/10/26 00:28:56;;;;;;;0.10;0.10;;;11.80;99.90;;;;;;5133497;27;20055;-73
2022/10/26 00:31:22;;;;;;;0.20;0.20;;;11.80;99.90;;;;;;5146048;27;20114;-73
2022/10/26 00:33:52;;;;;;;0.35;0.35;;;11.80;99.90;;;;;;5133180;27;20077;-73
2022/10/26 00:36:18;;;;;;;0.38;0.38;;;11.80;99.90;;;;;;5150595;27;20053;-73
2022/10/26 00:38:54;;;;;;;0.40;0.40;;;11.70;99.90;;;;;;5151943;27;20031;-73
2022/10/26 00:41:26;;;;;;;5.20;1.02;;;11.70;99.90;;;;;;5144098;27;20051;-72
2022/10/26 00:43:52;;;;;;;0.10;0.10;;;11.70;99.90;;;;;;5135029;27;20131;-73
2022/10/26 00:46:37;;;;;;;0.10;0.10;;;11.70;99.90;;;;;;5151052;27;20111;-73
2022/10/26 00:49:10;;;;;;;0.10;0.10;;;11.70;99.90;;;;;;5143244;27;20940;-73
2022/10/26 00:51:43;;;;;;;0.20;0.20;;;11.70;99.90;;;;;;5152433;27;20053;-73
2022/10/26 00:54:17;;;;;;;0.30;0.30;;;11.70;99.90;;;;;;5135016;27;20438;-73
2022/10/26 00:56:43;;;;;;;;;;;11.70;99.90;;;;;;5131314;27;20058;-73
2022/10/26 00:59:11;;;;;;;0.52;0.47;;;11.60;99.90;;;;;;5131654;27;20052;-73
2022/10/26 01:01:41;;;;;;;0.20;0.20;;;11.50;99.90;;;;;;5151958;27;20039;-73
2022/10/26 01:04:08;;;;;;;0.08;0.08;;;11.50;99.90;;;;;;5149356;27;20126;-73
2022/10/26 01:06:35;;;;;;;0.10;0.10;;;11.50;99.90;;;;;;5151506;27;20407;-72
2022/10/26 01:09:00;;;;;;;0.40;0.40;;;11.50;99.90;;;;;;5152342;27;20038;-73
2022/10/26 01:11:26;;;;;;;0.10;0.10;;;11.40;99.90;;;;;;5151928;27;20053;-73
2022/10/26 01:13:53;;;;;;;0.35;0.35;;;11.40;99.90;;;;;;5141285;27;20103;-73
2022/10/26 01:16:44;;;;;;;0.10;0.10;;;11.40;99.90;;;;;;5133345;27;20046;-73
2022/10/26 01:19:39;;;;;;;5.28;1.30;;;11.50;99.90;;;;;;5144138;27;20485;-73
2022/10/26 01:22:20;;;;;;;1.45;0.63;;;11.40;99.90;;;;;;5146723;27;20122;-73
2022/10/26 01:25:15;;;;;;;5.88;1.08;;;11.40;99.90;;;;;;5134398;27;20045;-73
2022/10/26 01:27:45;;;;;;;0.57;0.57;;;11.40;99.90;;;;;;5113839;27;20575;-73
2022/10/26 01:30:18;;;;;;;1.13;0.75;;;11.40;99.90;;;;;;5144644;27;20058;-73
2022/10/26 01:32:59;;;;;;;0.10;0.10;;;11.30;99.90;;;;;;5151638;27;20398;-72
2022/10/26 01:35:33;;;;;;;0.10;0.10;;;11.30;99.90;;;;;;5132664;27;20430;-73
2022/10/26 01:38:15;;;;;;;2.47;1.40;;;11.30;99.90;;;;;;5112571;27;20146;-73
2022/10/26 01:40:57;;;;;;;0.10;0.10;;;11.30;99.90;;;;;;5121686;27;20051;-73
2022/10/26 01:43:25;;;;;;;0.17;0.17;;;11.30;99.90;;;;;;5152182;27;20043;-73
2022/10/26 01:45:52;;;;;;;0.17;0.17;;;11.20;99.90;;;;;;5150031;27;20073;-73
2022/10/26 01:48:21;;;;;;;0.30;0.30;;;11.20;99.90;;;;;;5137888;27;20918;-73
2022/10/26 01:50:52;;;;;;;0.15;0.15;;;11.20;99.90;;;;;;5147849;27;20038;-73
2022/10/26 01:53:18;;;;;;;0.10;0.10;;;11.10;99.90;;;;;;5152150;27;20445;-72
2022/10/26 01:55:51;;;;;;;0.20;0.20;;;11.10;99.90;;;;;;5138656;27;20043;-73
2022/10/26 01:58:48;;;;;;;0.10;0.10;;;11.10;99.90;;;;;;5139356;27;20038;-73
2022/10/26 02:01:59;;;;;;;0.93;0.90;;;11.10;99.90;;;;;;5128616;27;20078;-73
2022/10/26 02:04:43;;;;;;;0.30;0.30;;;11.00;99.90;;;;;;5131299;27;20443;-72
2022/10/26 02:07:27;;;;;;;0.47;0.47;;;11.00;99.90;;;;;;5136132;27;20110;-73
2022/10/26 02:10:02;;;;;;;0.20;0.20;;;11.00;99.90;;;;;;5135766;27;20051;-73
2022/10/26 02:12:36;;;;;;;3.30;1.40;;;11.00;99.90;;;;;;5131636;27;20497;-73
2022/10/26 02:15:10;;;;;;;0.10;0.10;;;11.00;99.90;;;;;;5130773;27;20047;-73
2022/10/26 02:17:44;;;;;;;0.30;0.30;;;11.00;99.90;;;;;;5142976;27;20057;-73
2022/10/26 02:20:13;;;;;;;;;;;10.90;99.90;;;;;;5137820;27;20050;-73
2022/10/26 02:22:44;;;;;;;0.43;0.43;;;10.90;99.90;;;;;;5142927;27;19919;-73
2022/10/26 02:25:27;;;;;;;0.20;0.20;;;10.90;99.90;;;;;;5141617;27;20047;-73
2022/10/26 02:27:57;;;;;;;0.10;0.10;;;10.90;99.90;;;;;;5118263;27;20079;-72
2022/10/26 02:30:24;;;;;;;0.10;0.10;;;11.00;99.90;;;;;;5143003;27;20386;-73
2022/10/26 02:32:53;;;;;;;7.47;1.13;;;10.90;99.90;;;;;;5141214;27;20523;-72
2022/10/26 02:35:24;;;;;;;0.25;0.25;;;10.90;99.90;;;;;;5149466;27;20050;-72
2022/10/26 02:37:51;;;;;;;0.35;0.35;;;10.90;99.90;;;;;;5157359;27;20039;-73
2022/10/26 02:40:21;;;;;;;0.25;0.25;;;10.90;99.90;;;;;;5120353;27;20039;-73
2022/10/26 02:42:49;;;;;;;0.10;0.10;;;10.90;99.90;;;;;;5154936;27;20502;-72
2022/10/26 02:45:20;;;;;;;0.10;0.10;;;10.80;99.90;;;;;;5156872;27;20162;-72
2022/10/26 02:47:45;;;;;;;0.10;0.10;;;10.90;99.90;;;;;;5156253;27;20513;-73
2022/10/26 02:50:11;;;;;;;1.42;1.33;;;10.90;99.90;;;;;;5157750;27;20072;-72
2022/10/26 02:53:02;;;;;;;1.13;0.75;;;10.90;99.90;;;;;;5157476;27;20122;-72
2022/10/26 02:55:34;;;;;;;1.27;0.63;;;10.90;99.90;;;;;;5145731;27;20038;-72
2022/10/26 02:58:03;;;;;;;0.20;0.20;;;10.90;99.90;;;;;;5150120;27;20443;-73
2022/10/26 03:00:30;;;;;;;0.47;0.47;;;10.90;99.90;;;;;;5138204;27;20046;-72
2022/10/26 03:02:58;;;;;;;0.10;0.10;;;10.90;99.90;;;;;;5127789;27;20062;-72
2022/10/26 03:05:26;;;;;;;0.08;0.08;;;10.90;99.90;;;;;;5138264;27;20054;-73
2022/10/26 03:07:52;;;;;;;0.10;0.10;;;11.00;99.90;;;;;;5157822;27;20167;-72
2022/10/26 03:10:18;;;;;;;0.10;0.10;;;11.00;99.90;;;;;;5143534;27;20549;-73
2022/10/26 03:12:44;;;;;;;1.25;1.23;;;10.90;99.90;;;;;;5138289;27;20045;-72
2022/10/26 03:15:09;;;;;;;0.47;0.47;;;11.00;99.90;;;;;;5136894;27;20122;-73
2022/10/26 03:17:35;;;;;;;0.50;0.50;;;11.00;99.90;;;;;;5143644;27;20039;-72
2022/10/26 03:20:00;;;;;;;0.15;0.15;;;11.00;99.90;;;;;;5135320;27;20043;-73
2022/10/26 03:22:26;;;;;;;0.10;0.10;;;11.00;99.90;;;;;;5136880;27;20854;-72
2022/10/26 03:24:52;;;;;;;0.40;0.40;;;11.00;99.90;;;;;;5144670;27;20051;-72
2022/10/26 03:27:17;;;;;;;0.88;0.77;;;11.00;99.90;;;;;;5149943;27;20121;-72
2022/10/26 03:29:43;;;;;;;1.23;1.23;;;11.00;99.90;;;;;;5132738;27;20047;-73
2022/10/26 03:32:08;;;;;;;0.30;0.30;;;11.10;99.90;;;;;;5133637;27;20045;-72
2022/10/26 03:34:34;;;;;;;0.10;0.10;;;11.10;99.90;;;;;;5140412;27;20031;-72
2022/10/26 03:36:59;;;;;;;0.38;0.38;;;11.00;99.90;;;;;;5153962;27;20393;-73
2022/10/26 03:39:25;;;;;;;0.47;0.47;;;11.00;99.90;;;;;;5138542;27;20459;-72
2022/10/26 03:41:50;;;;;;;0.10;0.10;;;11.00;99.90;;;;;;5147114;27;20489;-72
2022/10/26 03:44:16;;;;;;;0.25;0.25;;;11.00;99.90;;;;;;5132417;27;20057;-73
2022/10/26 03:46:42;;;;;;;0.10;0.10;;;11.00;99.90;;;;;;5152768;27;20121;-73
2022/10/26 03:49:07;;;;;;;0.50;0.43;;;11.00;99.90;;;;;;5154385;27;20049;-72
2022/10/26 03:51:33;;;;;;;0.52;0.52;;;11.00;99.90;;;;;;5153051;27;20541;-72
2022/10/26 03:53:58;;;;;;;0.30;0.30;;;11.00;99.90;;;;;;5134696;27;20036;-72
2022/10/26 03:56:24;;;;;;;0.10;0.10;;;11.10;99.90;;;;;;5134478;27;20101;-72
2022/10/26 03:58:50;;;;;;;0.30;0.30;;;11.10;99.90;;;;;;5154323;27;20031;-72
2022/10/26 04:01:15;;;;;;;0.20;0.20;;;11.10;99.90;;;;;;5144501;27;20851;-72
2022/10/26 04:03:41;;;;;;;5.95;1.42;;;11.20;99.90;;;;;;5132404;27;20055;-72
2022/10/26 04:06:06;;;;;;;0.38;0.38;;;11.20;99.90;;;;;;5151199;27;20050;-72
2022/10/26 04:08:32;;;;;;;1.45;0.95;;;11.20;99.90;;;;;;5140114;27;20054;-72
2022/10/26 04:10:58;;;;;;;0.63;0.63;;;11.20;99.90;;;;;;5146874;27;20047;-72
2022/10/26 04:13:23;;;;;;;0.13;0.13;;;11.20;99.90;;;;;;5134895;27;20082;-72
2022/10/26 04:15:49;;;;;;;0.05;0.05;;;11.20;99.90;;;;;;5137077;27;20133;-72
2022/10/26 04:18:15;;;;;;;2.00;1.45;;;11.30;99.90;;;;;;5133333;27;20088;-72
2022/10/26 04:20:41;;;;;;;0.28;0.28;;;11.30;99.90;;;;;;5132926;27;20082;-72
2022/10/26 04:23:13;;;;;;;0.10;0.10;;;11.30;99.90;;;;;;5115180;27;20099;-73
2022/10/26 04:25:39;;;;;;;0.10;0.10;;;11.30;99.90;;;;;;5148863;27;20061;-72
2022/10/26 04:28:06;;;;;;;0.15;0.15;;;11.30;99.90;;;;;;5129664;27;20459;-73
2022/10/26 04:30:33;;;;;;;0.10;0.10;;;11.30;99.90;;;;;;5116917;27;20517;-72
2022/10/26 04:32:59;;;;;;;0.43;0.43;;;11.30;99.90;;;;;;5150633;27;20078;-72
2022/10/26 04:35:25;;;;;;;0.80;0.80;;;11.30;99.90;;;;;;5134917;27;20086;-72
2022/10/26 04:37:55;;;;;;;0.13;0.13;;;11.30;99.90;;;;;;5150249;27;20111;-72
2022/10/26 04:40:21;;;;;;;0.68;0.68;;;11.30;99.90;;;;;;5146567;27;20023;-73
2022/10/26 04:42:46;;;;;;;0.30;0.30;;;11.40;99.90;;;;;;5142617;27;20530;-72
2022/10/26 04:45:14;;;;;;;0.60;0.43;;;11.40;99.90;;;;;;5141203;27;20456;-73
2022/10/26 04:47:40;;;;;;;0.17;0.17;;;11.30;99.90;;;;;;5135296;27;20043;-72
2022/10/26 04:50:07;;;;;;;0.03;0.03;;;11.30;99.90;;;;;;5153202;27;20039;-73
2022/10/26 04:52:33;;;;;;;0.32;0.32;;;11.30;99.90;;;;;;5153064;27;20110;-73
2022/10/26 04:54:59;;;;;;;0.10;0.10;;;11.30;99.90;;;;;;5138650;27;20088;-72
2022/10/26 04:57:25;;;;;;;7.13;1.20;;;11.30;99.90;;;;;;5136128;27;20043;-73
2022/10/26 04:59:50;;;;;;;1.42;1.33;;;11.30;99.90;;;;;;5132869;27;20050;-72
2022/10/26 05:02:16;;;;;;;0.10;0.10;;;11.30;99.90;;;;;;5123551;27;20047;-73
2022/10/26 05:04:41;;;;;;;0.10;0.10;;;11.40;99.90;;;;;;5136253;27;20047;-73
2022/10/26 05:07:07;;;;;;;0.30;0.30;;;11.40;99.90;;;;;;5152753;27;20051;-73
2022/10/26 05:09:32;;;;;;;0.60;0.47;;;11.30;99.90;;;;;;5148345;27;20080;-73
2022/10/26 05:11:58;;;;;;;0.15;0.15;;;11.40;99.90;;;;;;5131883;27;20047;-73
2022/10/26 05:14:23;;;;;;;0.47;0.47;;;11.40;99.90;;;;;;5141477;27;20039;-73
2022/10/26 05:16:54;;;;;;;0.50;0.47;;;11.30;99.90;;;;;;5131273;27;20046;-73
2022/10/26 05:19:20;;;;;;;0.10;0.10;;;11.30;99.90;;;;;;5131284;27;20384;-73
2022/10/26 05:21:46;;;;;;;0.63;0.63;;;11.40;99.90;;;;;;5134776;27;20057;-72
2022/10/26 05:24:11;;;;;;;0.28;0.28;;;11.40;99.90;;;;;;5145870;27;20768;-73
2022/10/26 05:26:37;;;;;;;0.28;0.25;;;11.40;99.90;;;;;;5132014;27;20379;-73
2022/10/26 05:29:02;;;;;;;0.20;0.20;;;11.40;99.90;;;;;;5131250;27;20054;-72
2022/10/26 05:31:28;;;;;;;0.38;0.38;;;11.40;99.90;;;;;;5135959;27;20107;-73
2022/10/26 05:33:53;;;;;;;0.73;0.73;;;11.40;99.90;;;;;;5140539;27;20050;-73
2022/10/26 05:36:19;;;;;;;0.15;0.15;;;11.40;99.90;;;;;;5130519;27;20054;-72
2022/10/26 05:38:45;;;;;;;0.20;0.20;;;11.40;99.90;;;;;;5145279;27;20122;-73
2022/10/26 05:41:11;;;;;;;0.25;0.25;;;11.40;99.90;;;;;;5136018;27;20074;-72
2022/10/26 05:43:37;;;;;;;0.80;0.65;;;11.50;99.90;;;;;;5130315;27;20091;-72
2022/10/26 05:46:03;;;;;;;2.08;1.25;;;11.40;99.90;;;;;;5132500;27;20043;-73
2022/10/26 05:48:29;;;;;;;0.10;0.10;;;11.50;99.90;;;;;;5138296;27;20118;-72
2022/10/26 05:50:58;;;;;;;0.75;0.70;;;11.50;99.90;;;;;;5132379;27;20041;-72
2022/10/26 05:53:24;;;;;;;0.45;0.45;;;11.50;99.90;;;;;;5119810;27;20065;-73
2022/10/26 05:55:49;;;;;;;0.17;0.17;;;11.50;99.90;;;;;;5152038;27;20596;-72
2022/10/26 05:58:15;;;;;;;0.10;0.10;;;11.50;99.90;;;;;;5142220;27;20447;-72
2022/10/26 06:00:50;;;;;;;0.10;0.10;;;11.50;99.90;;;;;;5142115;27;20126;-72
2022/10/26 06:03:27;;;;;;;0.40;0.40;;;11.60;99.90;;;;;;5135885;27;20384;-72
2022/10/26 06:05:54;;;;;;;0.20;0.20;;;11.50;99.90;;;;;;5134076;27;20039;-72
2022/10/26 06:08:21;;;;;;;0.28;0.28;;;11.50;99.90;;;;;;5136292;27;20035;-73
2022/10/26 06:10:47;;;;;;;0.77;0.77;;;11.50;99.90;;;;;;5131314;27;20050;-73
2022/10/26 06:13:14;;;;;;;0.65;0.65;;;11.50;99.90;;;;;;5143371;27;20050;-73
2022/10/26 06:16:23;;;;;;;0.20;0.20;;;11.50;99.90;;;;;;5144017;27;20035;-72
2022/10/26 06:19:05;;;;;;;0.82;0.82;;;11.50;99.90;;;;;;5116675;28;20066;-73
2022/10/26 06:21:53;;;;;;;0.10;0.10;;;11.50;99.90;;;;;;5120302;27;20043;-73
2022/10/26 06:24:38;;;;;;;0.10;0.10;;;11.50;99.90;;;;;;5139430;27;20058;-73
2022/10/26 06:27:36;;;;;;;0.10;0.10;;;11.50;99.90;;;;;;5129567;27;20083;-73
2022/10/26 06:30:09;;;;;;;0.32;0.32;;;11.40;99.90;;;;;;5125572;27;20039;-73
2022/10/26 06:32:34;;;;;;;0.20;0.20;;;11.40;99.90;;;;;;5151077;27;20089;-72
2022/10/26 06:35:19;;;;;;;0.65;0.65;;;11.40;99.90;;;;;;5146473;27;20066;-73
2022/10/26 06:37:45;;;;;;;0.00;0.00;;;11.40;99.90;;;;;;5117935;27;20059;-73
2022/10/26 06:40:14;;;;;;;0.77;0.77;;;11.40;99.90;;;;;;5144353;27;20122;-73
2022/10/26 06:42:40;;;;;;;0.15;0.15;;;11.40;99.90;;;;;;5139521;27;20039;-73
2022/10/26 06:45:10;;;;;;;0.85;0.82;;;11.40;99.90;;;;;;5129841;27;20835;-73
2022/10/26 06:48:02;;;;;;;0.40;0.40;;;11.40;99.90;;;;;;5141627;27;20447;-73
2022/10/26 06:50:45;;;;;;;0.28;0.28;;;11.40;99.90;;;;;;5137718;27;20057;-72
2022/10/26 06:53:37;;;;;;;1.45;0.65;;;11.40;99.90;;;;;;5145243;27;20410;-72
2022/10/26 06:56:02;;;;;;;0.10;0.10;;;11.40;99.90;;;;;;5130789;28;20100;-70
2022/10/26 06:58:33;;;;;;;0.43;0.43;;;11.50;99.90;;;;;;5143525;27;20036;-73
2022/10/26 07:00:58;;;;;;;0.10;0.10;;;11.60;99.90;;;;;;5135616;27;20045;-72
2022/10/26 07:03:24;;;;;;;0.08;0.08;;;11.60;99.90;;;;;;5153199;27;20058;-72
2022/10/26 07:05:50;;;;;;;0.45;0.45;;;11.60;99.90;;;;;;5153267;27;20066;-72
2022/10/26 07:08:15;;;;;;;0.10;0.10;;;11.60;99.90;;;;;;5144919;27;20117;-72
2022/10/26 07:10:42;;;;;;;15.48;1.13;;;11.70;99.90;;;;;;5129080;27;20043;-72
2022/10/26 07:13:09;;;;;;;0.10;0.10;;;11.70;99.90;;;;;;5132716;27;20047;-72
2022/10/26 07:15:36;;;;;;;0.22;0.22;;;11.70;99.90;;;;;;5151072;27;20485;-72
2022/10/26 07:18:06;;;;;;;0.85;0.63;;;11.80;99.90;;;;;;5146335;27;20051;-72
2022/10/26 07:20:35;;;;;;;0.10;0.10;;;11.80;99.90;;;;;;5144894;27;20082;-72
2022/10/26 07:23:01;;;;;;;0.85;0.40;;;11.80;99.90;;;;;;5152367;27;20043;-73
2022/10/26 07:25:27;;;;;;;0.35;0.35;;;11.90;99.90;;;;;;5138592;27;20042;-72
2022/10/26 07:27:57;;;;;;;0.17;0.17;;;11.90;99.90;;;;;;5132415;27;20045;-72
2022/10/26 07:30:24;;;;;;;0.15;0.15;;;11.90;99.90;;;;;;5131400;27;20043;-72
2022/10/26 07:32:49;;;;;;;0.10;0.10;;;12.00;99.90;;;;;;5151081;27;20045;-73
2022/10/26 07:35:15;;;;;;;0.30;0.30;;;12.00;99.90;;;;;;5132120;27;20047;-72
2022/10/26 07:37:40;;;;;;;0.57;0.57;;;12.10;99.90;;;;;;5134064;27;20051;-72
2022/10/26 07:40:06;;;;;;;0.10;0.10;;;12.00;99.90;;;;;;5146628;27;20390;-73
2022/10/26 07:42:33;;;;;;;0.52;0.52;;;12.10;99.90;;;;;;5131207;27;20043;-72
2022/10/26 07:44:58;;;;;;;0.10;0.10;;;12.10;99.90;;;;;;5143002;27;20046;-72
2022/10/26 07:47:24;;;;;;;1.02;0.95;;;12.20;99.90;;;;;;5133584;27;20039;-71
2022/10/26 07:49:49;;;;;;;0.10;0.10;;;12.20;99.90;;;;;;5146074;27;20077;-72
2022/10/26 07:52:15;;;;;;;0.10;0.10;;;12.20;99.90;;;;;;5150465;27;20039;-72
2022/10/26 07:54:40;;;;;;;2.17;0.45;;;12.30;99.90;;;;;;5135832;27;20130;-72
2022/10/26 07:57:06;;;;;;;0.10;0.10;;;12.30;99.90;;;;;;5130482;27;20047;-72
2022/10/26 07:59:31;;;;;;;1.65;0.30;;;12.40;99.90;;;;;;5137121;27;20039;-72
2022/10/26 08:01:57;;;;;;;0.20;0.20;;;12.40;99.90;;;;;;5135760;27;20035;-72
2022/10/26 08:04:22;;;;;;;0.20;0.20;;;12.40;99.90;;;;;;5151104;27;20059;-73
2022/10/26 08:06:49;;;;;;;0.15;0.15;;;12.40;99.90;;;;;;5151413;27;20495;-72
2022/10/26 08:09:15;;;;;;;0.10;0.10;;;12.50;99.90;;;;;;5142749;27;20047;-72
2022/10/26 08:11:40;;;;;;;0.30;0.30;;;12.50;99.90;;;;;;5137288;27;20389;-72
2022/10/26 08:14:06;;;;;;;0.20;0.20;;;12.60;99.90;;;;;;5130552;27;20405;-73
2022/10/26 08:16:33;;;;;;;0.10;0.10;;;12.60;99.90;;;;;;5131895;27;20602;-72
2022/10/26 08:18:59;;;;;;;0.68;0.65;;;12.60;99.90;;;;;;5130195;27;20432;-72
2022/10/26 08:21:24;;;;;;;0.20;0.20;;;12.70;99.90;;;;;;5130829;27;20088;-73
2022/10/26 08:23:50;;;;;;;0.40;0.40;;;12.80;99.90;;;;;;5131587;27;20039;-73
2022/10/26 08:26:17;;;;;;;1.17;1.08;;;12.80;99.90;;;;;;5129382;27;20088;-72
2022/10/26 08:28:42;;;;;;;0.00;0.00;;;12.90;99.90;;;;;;5131471;27;20409;-72
2022/10/26 08:31:08;;;;;;;1.55;1.30;;;12.90;99.90;;;;;;5130307;27;20047;-73
2022/10/26 08:33:34;;;;;;;0.30;0.30;;;13.00;99.90;;;;;;5130965;27;20608;-72
2022/10/26 08:36:04;;;;;;;1.27;1.17;;;13.00;99.90;;;;;;5131153;27;20079;-72
2022/10/26 08:38:30;;;;;;;1.95;1.73;;;13.10;99.90;;;;;;5112920;27;20095;-72
2022/10/26 08:40:57;;;;;;;0.45;0.45;;;13.10;99.90;;;;;;5131519;27;20043;-71
2022/10/26 08:43:35;;;;;;;0.20;0.20;;;13.20;99.90;;;;;;5130846;27;20042;-72
2022/10/26 08:46:44;;;;;;;0.20;0.20;;;13.20;99.90;;;;;;5150701;27;20538;-72
2022/10/26 08:49:28;;;;;;;0.10;0.10;;;13.30;99.90;;;;;;5077444;27;20070;-72
2022/10/26 08:52:00;;;;;;;0.10;0.10;;;13.30;99.90;;;;;;5130216;27;20134;-71
2022/10/26 08:54:39;;;;;;;0.10;0.10;;;13.40;99.90;;;;;;5129875;27;20088;-72
2022/10/26 08:57:34;;;;;;;0.40;0.40;;;13.50;99.90;;;;;;5146012;27;20046;-73
2022/10/26 09:00:09;;;;;;;0.05;0.05;;;13.50;99.90;;;;;;5150548;27;20257;-72
2022/10/26 09:02:35;;;;;;;0.35;0.35;;;13.60;99.90;;;;;;5142248;27;20394;-72
2022/10/26 09:05:01;;;;;;;0.47;0.47;;;13.80;99.90;;;;;;5130440;27;20067;-72
2022/10/26 09:07:56;;;;;;;0.10;0.10;;;13.90;99.90;;;;;;5129455;27;20723;-72
2022/10/26 09:10:36;;;;;;;0.30;0.30;;;14.00;99.90;;;;;;5149860;27;20383;-72
2022/10/26 09:13:18;;;;;;;0.45;0.45;;;14.10;99.90;;;;;;5151002;27;20508;-72
2022/10/26 09:16:04;;;;;;;0.10;0.10;;;14.10;99.90;;;;;;5130118;27;20054;-72
2022/10/26 09:18:52;;;;;;;0.28;0.28;;;14.10;99.90;;;;;;5150459;27;20050;-72
2022/10/26 09:21:35;;;;;;;0.20;0.20;;;14.20;99.90;;;;;;5149922;27;20046;-72
2022/10/26 09:24:13;;;;;;;0.10;0.10;;;14.20;99.90;;;;;;5149145;27;20134;-72
2022/10/26 09:26:58;;;;;;;0.17;0.17;;;14.20;99.90;;;;;;5147818;27;20359;-72
2022/10/26 09:29:35;;;;;;;0.20;0.20;;;14.30;99.90;;;;;;5134552;27;20043;-72
2022/10/26 09:32:03;;;;;;;0.35;0.35;;;14.40;99.90;;;;;;5141183;27;20064;-72
2022/10/26 09:34:31;;;;;;;0.20;0.20;;;15.10;99.90;;;;;;5122238;27;20050;-73
2022/10/26 09:36:57;;;;;;;0.10;0.10;;;15.70;99.90;;;;;;5146972;27;20557;-73
2022/10/26 09:39:34;;;;;;;2.95;1.58;;;16.10;99.90;;;;;;5133243;27;20122;-72
2022/10/26 09:42:32;;;;;;;0.28;0.28;;;16.40;99.90;;;;;;5131191;27;20097;-72
2022/10/26 09:45:04;;;;;;;0.10;0.10;;;16.30;99.90;;;;;;5150849;27;20051;-73
2022/10/26 09:47:39;;;;;;;0.05;0.05;;;16.40;99.90;;;;;;5152405;27;20051;-73
2022/10/26 09:50:27;;;;;;;0.25;0.25;;;16.60;99.90;;;;;;5145009;27;20078;-73
2022/10/26 09:52:53;;;;;;;0.00;0.00;;;16.60;99.90;;;;;;5147295;27;20043;-72
2022/10/26 09:55:20;;;;;;;2.28;0.85;;;16.50;99.90;;;;;;5152049;27;20039;-72
2022/10/26 09:57:53;;;;;;;0.10;0.10;;;16.30;99.90;;;;;;5147758;27;20038;-72
2022/10/26 10:00:21;;;;;;;0.10;0.10;;;16.10;99.90;;;;;;5147185;27;20072;-72
2022/10/26 10:02:51;;;;;;;0.68;0.68;;;16.00;99.90;;;;;;5150321;27;20078;-72
2022/10/26 10:05:30;;;;;;;0.10;0.10;;;15.90;99.90;;;;;;5151258;27;20051;-72
2022/10/26 10:08:28;;;;;;;0.13;0.13;;;15.70;99.90;;;;;;5148956;27;20042;-72
2022/10/26 10:10:56;;;;;;;0.03;0.03;;;15.80;99.90;;;;;;5091350;27;20137;-71
2022/10/26 10:13:24;;;;;;;0.73;0.73;;;15.90;99.90;;;;;;5125032;27;20047;-71
2022/10/26 10:15:53;;;;;;;0.00;0.00;;;15.90;99.90;;;;;;5148390;27;20065;-71
2022/10/26 10:18:21;;;;;;;0.20;0.20;;;15.90;99.90;;;;;;5112927;27;20690;-71
2022/10/26 10:20:55;;;;;;;0.55;0.55;;;15.90;99.90;;;;;;5150028;27;20731;-71
2022/10/26 10:23:35;;;;;;;6.05;2.10;;;15.90;99.90;;;;;;5134453;27;20498;-71
2022/10/26 10:26:07;;;;;;;0.10;0.10;;;15.90;99.90;;;;;;5136659;27;20073;-71
2022/10/26 10:28:33;;;;;;;11.10;0.75;;;15.90;99.90;;;;;;5138021;27;20110;-71
2022/10/26 10:31:05;;;;;;;0.38;0.38;;;15.90;99.90;;;;;;5149556;27;20461;-71
2022/10/26 10:33:41;;;;;;;1.05;1.05;;;15.90;99.90;;;;;;5140596;27;20074;-72
2022/10/26 10:36:12;;;;;;;0.10;0.10;;;15.90;99.90;;;;;;5124379;27;20433;-72
2022/10/26 10:38:40;;;;;;;0.13;0.13;;;15.90;99.90;;;;;;5155646;27;20047;-71
2022/10/26 10:41:25;;;;;;;0.10;0.10;;;15.90;99.90;;;;;;5153939;27;20045;-71
2022/10/26 10:44:13;;;;;;;0.20;0.20;;;16.00;99.90;;;;;;5149396;27;20409;-71
2022/10/26 10:46:38;;;;;;;0.10;0.10;;;16.00;99.90;;;;;;5122378;27;20145;-71
2022/10/26 10:49:15;;;;;;;0.00;0.00;;;16.10;99.90;;;;;;5146661;27;20122;-71
2022/10/26 10:51:42;;;;;;;0.20;0.20;;;16.10;99.90;;;;;;5134965;27;20043;-71
2022/10/26 10:54:23;;;;;;;0.20;0.20;;;16.10;99.90;;;;;;5135469;27;20463;-71
2022/10/26 10:57:07;;;;;;;0.10;0.10;;;16.10;99.90;;;;;;5141431;27;20049;-71
2022/10/26 10:59:52;;;;;;;0.03;0.03;;;16.20;99.90;;;;;;5134385;27;20077;-71
2022/10/26 11:02:37;;;;;;;0.00;0.00;;;16.20;99.90;;;;;;5139443;27;20141;-71
2022/10/26 11:05:36;;;;;;;0.10;0.10;;;16.30;99.90;;;;;;5136044;27;20059;-71
2022/10/26 11:08:06;;;;;;;0.32;0.32;;;16.40;99.90;;;;;;5133763;27;20047;-72
2022/10/26 11:10:39;;;;;;;0.10;0.10;;;16.40;99.90;;;;;;5135451;27;20158;-72
2022/10/26 11:13:29;;;;;;;0.08;0.08;;;16.60;99.90;;;;;;5124467;27;20042;-72
2022/10/26 11:16:01;;;;;;;0.40;0.40;;;16.70;99.90;;;;;;5141203;27;20050;-72
2022/10/26 11:18:40;;;;;;;0.05;0.05;;;16.90;99.90;;;;;;5138994;27;20039;-71
2022/10/26 11:21:24;;;;;;;9.43;1.27;;;17.00;99.90;;;;;;5133311;27;20054;-72
2022/10/26 11:24:01;;;;;;;0.10;0.10;;;17.20;99.90;;;;;;5126155;27;20494;-71
2022/10/26 11:26:34;;;;;;;0.00;0.00;;;17.50;99.90;;;;;;5154992;27;20038;-71
2022/10/26 11:29:02;;;;;;;;;;;17.70;99.90;;;;;;5150929;27;20051;-71
2022/10/26 11:31:38;;;;;;;0.17;0.17;;;18.00;99.90;;;;;;5119754;27;19919;-71
2022/10/26 11:34:19;;;;;;;0.52;0.52;;;18.10;99.90;;;;;;5115918;27;20051;-71
2022/10/26 11:36:51;;;;;;;0.00;0.00;;;18.30;99.90;;;;;;5137961;27;20145;-71
2022/10/26 11:39:27;;;;;;;0.10;0.10;;;18.70;99.90;;;;;;5151802;27;20058;-71
2022/10/26 11:42:05;;;;;;;0.22;0.22;;;18.90;99.90;;;;;;5139095;27;20486;-71
2022/10/26 11:44:38;;;;;;;0.10;0.10;;;18.90;99.90;;;;;;5131995;27;20494;-72
2022/10/26 11:47:22;;;;;;;0.15;0.15;;;18.90;99.90;;;;;;5131500;27;20432;-72
2022/10/26 11:50:05;;;;;;;0.10;0.10;;;19.20;99.90;;;;;;5125115;27;20043;-71
2022/10/26 11:52:51;;;;;;;0.70;0.65;;;19.30;99.90;;;;;;5131815;27;20085;-71
2022/10/26 11:55:19;;;;;;;0.10;0.10;;;19.10;99.90;;;;;;5130963;27;21705;-72
2022/10/26 11:57:45;;;;;;;1.25;0.50;;;18.80;99.90;;;;;;5131301;27;20066;-71
2022/10/26 12:00:17;;;;;;;0.32;0.32;;;18.50;99.90;;;;;;5131480;27;20039;-71
2022/10/26 12:02:48;;;;;;;0.43;0.43;;;18.20;99.90;;;;;;5138268;27;20405;-72
2022/10/26 12:05:26;;;;;;;0.47;0.47;;;18.00;99.90;;;;;;5148375;27;20046;-72
2022/10/26 12:08:00;;;;;;;0.03;0.03;;;18.10;99.90;;;;;;5120499;27;20379;-72
2022/10/26 12:10:30;;;;;;;1.73;0.77;;;18.20;99.90;;;;;;5130827;27;20043;-72
2022/10/26 12:13:17;;;;;;;0.17;0.17;;;18.40;99.90;;;;;;5131832;27;20043;-71
2022/10/26 12:15:50;;;;;;;1.45;1.38;;;18.50;99.90;;;;;;5132190;27;20550;-71
2022/10/26 12:18:35;;;;;;;0.30;0.30;;;18.60;99.90;;;;;;5130713;27;20115;-71
2022/10/26 12:21:03;;;;;;;0.20;0.20;;;19.00;99.90;;;;;;5134719;27;20501;-72
2022/10/26 12:23:33;;;;;;;0.25;0.20;;;19.30;99.90;;;;;;5122742;27;20039;-72
2022/10/26 12:26:27;;;;;;;0.10;0.10;;;19.40;99.90;;;;;;5130675;27;20051;-74
2022/10/26 12:29:01;;;;;;;0.00;0.00;;;19.60;99.90;;;;;;5127937;27;20126;-72
2022/10/26 12:31:36;;;;;;;0.20;0.20;;;19.60;99.90;;;;;;5130431;27;20047;-72
2022/10/26 12:34:21;;;;;;;0.10;0.10;;;19.80;99.90;;;;;;5130451;27;20047;-71
2022/10/26 12:36:55;;;;;;;0.00;0.00;;;20.20;99.90;;;;;;5127793;27;20058;-72
2022/10/26 12:39:41;;;;;;;0.00;0.00;;;20.20;99.90;;;;;;5130271;27;20069;-71
2022/10/26 12:42:27;;;;;;;0.77;0.75;;;20.50;99.90;;;;;;5130230;27;20035;-71
2022/10/26 12:44:53;;;;;;;0.22;0.22;;;20.70;99.90;;;;;;5130544;27;20047;-72
2022/10/26 12:47:27;;;;;;;1.00;0.85;;;20.90;99.90;;;;;;5139221;27;20043;-72
2022/10/26 12:50:05;;;;;;;0.20;0.20;;;21.00;99.90;;;;;;5130998;27;20043;-72
2022/10/26 12:52:45;;;;;;;0.00;0.00;;;21.10;99.90;;;;;;5113967;27;20055;-72
2022/10/26 12:55:11;;;;;;;0.00;0.00;;;21.30;99.90;;;;;;5130059;27;20047;-72
2022/10/26 12:58:04;;;;;;;0.20;0.20;;;21.20;99.90;;;;;;5112286;27;20046;-72
2022/10/26 13:00:33;;;;;;;0.28;0.28;;;21.50;99.90;;;;;;5130321;27;20051;-72
2022/10/26 13:03:13;;;;;;;1.02;0.43;;;21.40;99.90;;;;;;5120254;27;20047;-72
2022/10/26 13:05:39;;;;;;;1.08;0.95;;;21.30;99.90;;;;;;5130761;27;20096;-72
2022/10/26 13:08:10;;;;;;;0.45;0.25;;;20.70;99.90;;;;;;5128654;27;20043;-73
2022/10/26 13:10:39;;;;;;;0.95;0.95;;;20.20;99.90;;;;;;5130504;27;20043;-72
2022/10/26 13:13:07;;;;;;;0.20;0.17;;;19.70;99.90;;;;;;5129153;27;20751;-72